Flight Track Log - Related Links

Times and Time Zones

All times are in EDT time to prevent confusion due to time zone crossing. See the DAL3691 flight status page for this flight to view local times or setup timezone preferences in your user account.

Time Position Orientation Groundspeed Altitude Reporting Facility
EDT Latitude Longitude Course Direction KTS MPH feet Rate Location/Type
Sat 02:13:54 PM 42.2017 -83.3583 90° East 154 177 1,300  Level Cleveland Center
Sat 02:14:37 PM 42.1700 -83.3708 196° South 168 193 2,800 2,019 Climbing Cleveland Center
Sat 02:15:38 PM 42.1153 -83.3908 195° South 243 280 4,800 2,390 Climbing Cleveland Center
Sat 02:16:40 PM 42.0458 -83.4158 195° South 261 300 7,700 2,488 Climbing Cleveland Center
Sat 02:17:00 PM 42.2167 -82.7509 90° East  Level FlightAware
Sat 02:17:41 PM 41.9931 -83.3575 141° Southeast 296 341 9,900  Level Cleveland Center
Sat 02:18:00 PM 42.2167 -82.6002 90° East  Level FlightAware
Sat 02:18:21 PM 42.0053 -83.2881 77° East 336 387 10,000  Level Cleveland Center
Sat 02:19:00 PM 42.2167 -82.4495 90° East  Level FlightAware
Sat 02:19:21 PM 42.0417 -83.1528 70° East 369 425 10,000  Level Cleveland Center
Sat 02:20:21 PM 42.0758 -83.0197 71° East 369 425 11,200 1,750 Climbing Cleveland Center
Sat 02:21:21 PM 42.1119 -82.8894 69° East 369 425 13,500 2,150 Climbing Cleveland Center
Sat 02:22:21 PM 42.1458 -82.7564 71° East 369 425 15,500 1,500 Climbing Cleveland Center
Sat 02:23:21 PM 42.1817 -82.6203 70° East 369 425 16,500 1,250 Climbing Cleveland Center
Sat 02:24:21 PM 42.2175 -82.4783 71° East 375 432 18,000 1,300 Climbing Cleveland Center
Sat 02:25:21 PM 42.2175 -82.3297 90° East 387 445 19,100 1,050 Climbing Cleveland Center
Sat 02:26:21 PM 42.2053 -82.1781 96° East 387 445 20,100 1,000 Climbing Cleveland Center
Sat 02:27:21 PM 42.1947 -82.0181 95° East 407 468 21,100 1,000 Climbing Cleveland Center
Sat 02:28:21 PM 42.1422 -81.8853 118° Southeast 413 475 22,100 950 Climbing Cleveland Center
Sat 02:29:21 PM 42.0517 -81.7772 138° Southeast 400 460 23,000 750 Climbing Cleveland Center
Sat 02:30:21 PM 41.9672 -81.6833 140° Southeast 429 494 23,600 550 Climbing Cleveland Center
Sat 02:31:21 PM 41.8744 -81.5731 138° Southeast 443 510 24,100 700 Climbing Cleveland Center
Sat 02:32:21 PM 41.7794 -81.4631 139° Southeast 456 525 25,000 950 Climbing Cleveland Center
Sat 02:33:21 PM 41.6842 -81.3533 139° Southeast 451 519 26,000 1,000 Climbing Cleveland Center
Sat 02:34:21 PM 41.5892 -81.2467 140° Southeast 451 519 27,000 500 Climbing Cleveland Center
Sat 02:35:21 PM 41.4939 -81.1097 133° Southeast 451 519 27,000  Level Cleveland Center
Sat 02:36:21 PM 41.4361 -80.9542 116° Southeast 468 539 27,000  Level Cleveland Center
Sat 02:37:21 PM 41.3739 -80.7961 118° Southeast 473 544 27,000  Level Cleveland Center
Sat 02:38:21 PM 41.3117 -80.6383 118° Southeast 478 550 27,000  Level Cleveland Center
Sat 02:39:21 PM 41.2492 -80.4808 118° Southeast 478 550 27,000 -250 Level Cleveland Center
Sat 02:40:21 PM 41.1967 -80.3375 116° Southeast 478 550 26,500 -1,000 Descending Cleveland Center
Sat 02:41:21 PM 41.1339 -80.1778 118° Southeast 478 550 25,000 -1,250 Descending Cleveland Center
Sat 02:42:21 PM 41.0706 -80.0267 119° Southeast 473 544 24,000 -500 Descending Cleveland Center
Sat 02:43:21 PM 41.0114 -79.8786 118° Southeast 467 537 24,000  Level Cleveland Center
Sat 02:44:21 PM 40.9542 -79.7308 117° Southeast 456 525 24,000 -400 Level Cleveland Center
Sat 02:45:21 PM 40.8947 -79.5889 119° Southeast 451 519 23,200 -900 Descending Cleveland Center
Sat 02:46:21 PM 40.8350 -79.4442 119° Southeast 451 519 22,200 -1,000 Descending Cleveland Center
Sat 02:47:21 PM 40.7833 -79.2969 115° Southeast 451 519 21,200 -1,000 Descending Cleveland Center
Sat 02:48:21 PM 40.7481 -79.1333 106° East 439 505 20,200 -1,000 Descending Cleveland Center
Sat 02:49:21 PM 40.7167 -78.9806 105° East 429 494 19,200 -1,000 Descending Cleveland Center
Sat 02:50:21 PM 40.6856 -78.8417 106° East 424 488 18,200 -750 Descending Cleveland Center
Sat 02:51:21 PM 40.6539 -78.6919 106° East 424 488 17,700 -600 Descending Cleveland Center
Sat 02:52:21 PM 40.6244 -78.5450 105° East 424 488 17,000 -350 Descending Cleveland Center
Sat 02:53:21 PM 40.5925 -78.3983 106° East 418 481 17,000  Level Cleveland Center
Sat 02:53:40 PM 40.5817 -78.3411 104° East 416 479 17,000  Level New Center
Sat 02:54:41 PM 40.5525 -78.2094 106° East 411 473 17,000 -49 Level New Center
Sat 02:55:42 PM 40.5200 -78.0611 106° East 411 473 16,900 -850 Descending New Center
Sat 02:56:41 PM 40.4911 -77.9217 105° East 406 467 15,300 -2,067 Descending New Center
Sat 02:57:41 PM 40.4653 -77.7933 105° East 388 447 12,800 -2,050 Descending New Center
Sat 02:58:41 PM 40.4369 -77.6758 108° East 358 412 11,200 -1,537 Descending New Center
Sat 02:59:42 PM 40.4136 -77.5756 107° East 311 358 9,700 -1,785 Descending New Center
Sat 03:00:42 PM 40.3903 -77.4694 106° East 282 325 7,600 -1,780 Descending New Center
Sat 03:01:40 PM 40.3722 -77.3833 105° East 277 319 6,200 -1,714 Descending New Center
Sat 03:02:41 PM 40.3506 -77.2858 106° East 265 305 4,200 -1,537 Descending New Center
Sat 03:03:41 PM 40.3342 -77.2053 105° East 260 299 3,100 -555 Descending New Center
Sat 03:04:40 PM 40.3122 -77.1081 106° East 250 288 3,100 -50 Level New Center
Sat 03:05:40 PM 40.2956 -77.0303 106° East 255 293 3,000 -100 Descending New Center

Login

Don't have an account? Register now (free) for customized features, flight alerts, and more!